sensor_id;sensor_type;location;lat;lon;timestamp;pressure;altitude;pressure_sealevel;temperature;humidity
6134;BME280;3098;42.678;23.364;2023-05-19T00:02:02;95164.38;;;11.00;100.00
6134;BME280;3098;42.678;23.364;2023-05-19T00:04:30;95125.81;;;10.71;100.00
6134;BME280;3098;42.678;23.364;2023-05-19T00:06:58;95154.78;;;10.90;100.00
6134;BME280;3098;42.678;23.364;2023-05-19T00:09:28;95135.75;;;10.88;100.00
6134;BME280;3098;42.678;23.364;2023-05-19T00:11:56;95152.03;;;10.95;100.00
6134;BME280;3098;42.678;23.364;2023-05-19T00:14:23;95168.28;;;11.02;100.00
6134;BME280;3098;42.678;23.364;2023-05-19T00:16:51;95161.13;;;11.03;100.00
6134;BME280;3098;42.678;23.364;2023-05-19T00:19:20;95126.19;;;10.87;100.00
6134;BME280;3098;42.678;23.364;2023-05-19T00:21:48;95153.47;;;11.01;100.00
6134;BME280;3098;42.678;23.364;2023-05-19T00:24:15;95144.97;;;10.90;100.00
6134;BME280;3098;42.678;23.364;2023-05-19T00:26:43;95099.63;;;10.56;100.00
6134;BME280;3098;42.678;23.364;2023-05-19T00:29:10;95095.13;;;10.57;100.00
6134;BME280;3098;42.678;23.364;2023-05-19T00:31:37;95148.59;;;10.94;100.00
6134;BME280;3098;42.678;23.364;2023-05-19T00:34:04;95146.34;;;10.88;100.00
6134;BME280;3098;42.678;23.364;2023-05-19T00:36:31;95133.69;;;10.85;100.00
6134;BME280;3098;42.678;23.364;2023-05-19T00:38:58;95039.09;;;10.27;100.00
6134;BME280;3098;42.678;23.364;2023-05-19T00:41:25;95144.53;;;10.97;100.00
6134;BME280;3098;42.678;23.364;2023-05-19T00:43:53;95080.41;;;10.51;100.00
6134;BME280;3098;42.678;23.364;2023-05-19T00:46:20;95141.22;;;10.91;100.00
6134;BME280;3098;42.678;23.364;2023-05-19T00:48:48;95117.53;;;10.73;100.00
6134;BME280;3098;42.678;23.364;2023-05-19T00:51:15;95141.22;;;10.91;100.00
6134;BME280;3098;42.678;23.364;2023-05-19T00:53:43;95136.81;;;10.87;100.00
6134;BME280;3098;42.678;23.364;2023-05-19T00:56:14;95139.66;;;10.90;100.00
6134;BME280;3098;42.678;23.364;2023-05-19T00:58:41;95050.25;;;10.16;100.00
6134;BME280;3098;42.678;23.364;2023-05-19T01:01:10;95114.06;;;10.64;100.00
6134;BME280;3098;42.678;23.364;2023-05-19T01:03:39;95071.34;;;10.21;100.00
6134;BME280;3098;42.678;23.364;2023-05-19T01:06:07;95137.44;;;10.62;100.00
6134;BME280;3098;42.678;23.364;2023-05-19T01:08:35;95142.94;;;10.65;100.00
6134;BME280;3098;42.678;23.364;2023-05-19T01:11:02;95154.75;;;10.59;100.00
6134;BME280;3098;42.678;23.364;2023-05-19T01:13:30;95035.44;;;9.79;100.00
6134;BME280;3098;42.678;23.364;2023-05-19T01:16:00;95154.06;;;10.54;100.00
6134;BME280;3098;42.678;23.364;2023-05-19T01:18:42;95125.28;;;10.25;100.00
6134;BME280;3098;42.678;23.364;2023-05-19T01:21:35;95146.78;;;10.37;100.00
6134;BME280;3098;42.678;23.364;2023-05-19T01:24:23;95144.91;;;10.37;100.00
6134;BME280;3098;42.678;23.364;2023-05-19T01:27:13;95151.28;;;10.36;100.00
6134;BME280;3098;42.678;23.364;2023-05-19T01:32:29;95144.16;;;10.23;100.00
6134;BME280;3098;42.678;23.364;2023-05-19T01:34:57;95121.44;;;9.95;100.00
6134;BME280;3098;42.678;23.364;2023-05-19T01:37:26;95137.78;;;10.11;100.00
6134;BME280;3098;42.678;23.364;2023-05-19T01:39:54;95155.66;;;10.19;100.00
6134;BME280;3098;42.678;23.364;2023-05-19T01:42:22;95167.47;;;10.13;100.00
6134;BME280;3098;42.678;23.364;2023-05-19T01:44:52;95123.41;;;9.90;100.00
6134;BME280;3098;42.678;23.364;2023-05-19T01:47:20;95162.53;;;10.20;100.00
6134;BME280;3098;42.678;23.364;2023-05-19T01:49:49;95159.19;;;10.14;100.00
6134;BME280;3098;42.678;23.364;2023-05-19T01:52:16;95135.06;;;9.89;100.00
6134;BME280;3098;42.678;23.364;2023-05-19T01:54:43;95160.00;;;10.15;100.00
6134;BME280;3098;42.678;23.364;2023-05-19T01:57:16;95169.00;;;10.14;100.00
6134;BME280;3098;42.678;23.364;2023-05-19T01:59:51;95161.06;;;10.14;100.00
6134;BME280;3098;42.678;23.364;2023-05-19T02:02:27;95138.41;;;9.94;100.00
6134;BME280;3098;42.678;23.364;2023-05-19T02:05:04;95163.47;;;10.10;100.00
6134;BME280;3098;42.678;23.364;2023-05-19T02:07:36;95177.53;;;10.11;100.00
6134;BME280;3098;42.678;23.364;2023-05-19T02:10:10;95170.16;;;10.08;100.00
6134;BME280;3098;42.678;23.364;2023-05-19T02:12:40;95172.06;;;10.07;100.00
6134;BME280;3098;42.678;23.364;2023-05-19T02:15:10;95122.03;;;9.65;100.00
6134;BME280;3098;42.678;23.364;2023-05-19T02:17:41;95171.00;;;9.95;100.00
6134;BME280;3098;42.678;23.364;2023-05-19T02:20:14;95172.72;;;9.99;100.00
6134;BME280;3098;42.678;23.364;2023-05-19T02:22:41;95166.84;;;10.02;100.00
6134;BME280;3098;42.678;23.364;2023-05-19T02:25:09;95165.69;;;9.95;100.00
6134;BME280;3098;42.678;23.364;2023-05-19T02:27:37;95171.38;;;9.88;100.00
6134;BME280;3098;42.678;23.364;2023-05-19T02:30:06;95168.56;;;9.85;100.00
6134;BME280;3098;42.678;23.364;2023-05-19T02:32:34;95161.38;;;9.71;100.00
6134;BME280;3098;42.678;23.364;2023-05-19T02:35:01;95171.78;;;9.81;100.00
6134;BME280;3098;42.678;23.364;2023-05-19T02:37:30;95178.47;;;9.79;100.00
6134;BME280;3098;42.678;23.364;2023-05-19T02:39:57;95187.50;;;9.78;100.00
6134;BME280;3098;42.678;23.364;2023-05-19T02:42:23;95174.34;;;9.73;100.00
6134;BME280;3098;42.678;23.364;2023-05-19T02:44:51;95155.91;;;9.54;100.00
6134;BME280;3098;42.678;23.364;2023-05-19T02:47:18;95159.22;;;9.60;100.00
6134;BME280;3098;42.678;23.364;2023-05-19T02:49:45;95161.50;;;9.53;100.00
6134;BME280;3098;42.678;23.364;2023-05-19T02:52:12;95171.59;;;9.64;100.00
6134;BME280;3098;42.678;23.364;2023-05-19T02:54:40;95128.25;;;9.33;100.00
6134;BME280;3098;42.678;23.364;2023-05-19T02:57:07;95182.19;;;9.64;100.00
6134;BME280;3098;42.678;23.364;2023-05-19T02:59:35;95181.69;;;9.62;100.00
6134;BME280;3098;42.678;23.364;2023-05-19T03:02:03;95182.88;;;9.70;100.00
6134;BME280;3098;42.678;23.364;2023-05-19T03:04:31;95181.19;;;9.60;100.00
6134;BME280;3098;42.678;23.364;2023-05-19T03:07:06;95144.53;;;9.40;100.00
6134;BME280;3098;42.678;23.364;2023-05-19T03:09:34;95192.47;;;9.66;100.00
6134;BME280;3098;42.678;23.364;2023-05-19T03:12:02;95204.75;;;9.75;100.00
6134;BME280;3098;42.678;23.364;2023-05-19T03:14:31;95177.38;;;9.66;100.00
6134;BME280;3098;42.678;23.364;2023-05-19T03:16:58;95198.88;;;9.78;100.00
6134;BME280;3098;42.678;23.364;2023-05-19T03:19:26;95204.53;;;9.86;100.00
6134;BME280;3098;42.678;23.364;2023-05-19T03:21:53;95198.75;;;9.97;100.00
6134;BME280;3098;42.678;23.364;2023-05-19T03:24:20;95170.28;;;10.03;100.00
6134;BME280;3098;42.678;23.364;2023-05-19T03:26:48;95196.25;;;10.42;100.00
6134;BME280;3098;42.678;23.364;2023-05-19T03:29:16;95158.03;;;10.43;100.00
6134;BME280;3098;42.678;23.364;2023-05-19T03:31:43;95192.53;;;10.87;100.00
6134;BME280;3098;42.678;23.364;2023-05-19T03:34:10;95188.13;;;11.05;100.00
6134;BME280;3098;42.678;23.364;2023-05-19T03:36:37;95188.50;;;11.42;100.00
6134;BME280;3098;42.678;23.364;2023-05-19T03:39:04;95145.63;;;11.27;100.00
6134;BME280;3098;42.678;23.364;2023-05-19T03:41:31;95114.06;;;11.25;100.00
6134;BME280;3098;42.678;23.364;2023-05-19T03:43:58;95175.69;;;11.75;100.00
6134;BME280;3098;42.678;23.364;2023-05-19T03:46:26;95122.53;;;11.36;100.00
6134;BME280;3098;42.678;23.364;2023-05-19T03:48:53;95172.09;;;11.40;100.00
6134;BME280;3098;42.678;23.364;2023-05-19T03:51:20;95156.50;;;11.17;100.00
6134;BME280;3098;42.678;23.364;2023-05-19T03:53:47;95154.59;;;11.09;100.00
6134;BME280;3098;42.678;23.364;2023-05-19T03:56:14;95133.28;;;10.91;100.00
6134;BME280;3098;42.678;23.364;2023-05-19T03:58:42;95168.22;;;11.16;100.00
6134;BME280;3098;42.678;23.364;2023-05-19T04:01:11;95186.41;;;11.31;100.00
6134;BME280;3098;42.678;23.364;2023-05-19T04:03:39;95192.38;;;11.36;100.00
6134;BME280;3098;42.678;23.364;2023-05-19T04:06:06;95148.13;;;11.23;100.00
6134;BME280;3098;42.678;23.364;2023-05-19T04:08:34;95159.53;;;11.63;100.00
6134;BME280;3098;42.678;23.364;2023-05-19T04:11:01;95094.34;;;11.48;100.00
6134;BME280;3098;42.678;23.364;2023-05-19T04:13:29;95175.22;;;12.38;100.00
6134;BME280;3098;42.678;23.364;2023-05-19T04:15:56;95056.13;;;12.35;100.00
6134;BME280;3098;42.678;23.364;2023-05-19T04:18:24;95187.38;;;14.09;100.00
6134;BME280;3098;42.678;23.364;2023-05-19T04:20:52;95188.31;;;14.63;100.00
6134;BME280;3098;42.678;23.364;2023-05-19T04:23:19;95125.31;;;14.50;100.00
6134;BME280;3098;42.678;23.364;2023-05-19T04:25:46;95137.59;;;14.63;100.00
6134;BME280;3098;42.678;23.364;2023-05-19T04:28:14;95161.00;;;14.99;100.00
6134;BME280;3098;42.678;23.364;2023-05-19T04:30:42;95175.81;;;15.41;100.00
6134;BME280;3098;42.678;23.364;2023-05-19T04:33:11;95145.06;;;15.23;100.00
6134;BME280;3098;42.678;23.364;2023-05-19T04:35:38;95191.34;;;15.15;100.00
6134;BME280;3098;42.678;23.364;2023-05-19T04:38:07;95164.41;;;15.20;100.00
6134;BME280;3098;42.678;23.364;2023-05-19T04:40:36;95163.31;;;15.33;100.00
6134;BME280;3098;42.678;23.364;2023-05-19T04:43:04;95186.78;;;15.48;100.00
6134;BME280;3098;42.678;23.364;2023-05-19T04:45:33;95153.59;;;15.62;100.00
6134;BME280;3098;42.678;23.364;2023-05-19T04:48:02;95108.44;;;16.73;96.51
6134;BME280;3098;42.678;23.364;2023-05-19T04:50:29;95193.72;;;17.26;92.99
6134;BME280;3098;42.678;23.364;2023-05-19T04:52:56;95182.03;;;16.91;93.04
6134;BME280;3098;42.678;23.364;2023-05-19T04:55:25;95192.47;;;18.45;86.58
6134;BME280;3098;42.678;23.364;2023-05-19T04:57:52;95119.91;;;17.01;85.70
6134;BME280;3098;42.678;23.364;2023-05-19T05:00:20;95134.09;;;17.17;87.29
6134;BME280;3098;42.678;23.364;2023-05-19T05:02:48;95161.22;;;16.72;87.85
6134;BME280;3098;42.678;23.364;2023-05-19T05:05:17;95192.03;;;16.66;91.50
6134;BME280;3098;42.678;23.364;2023-05-19T05:07:44;95139.34;;;16.70;90.37
6134;BME280;3098;42.678;23.364;2023-05-19T05:10:12;95195.91;;;17.64;87.03
6134;BME280;3098;42.678;23.364;2023-05-19T05:12:41;95199.34;;;18.27;80.52
6134;BME280;3098;42.678;23.364;2023-05-19T05:15:10;95198.53;;;18.42;80.10
6134;BME280;3098;42.678;23.364;2023-05-19T05:17:38;95191.88;;;18.86;76.49
6134;BME280;3098;42.678;23.364;2023-05-19T05:20:06;95195.34;;;19.06;76.60
6134;BME280;3098;42.678;23.364;2023-05-19T05:22:34;95183.88;;;19.28;70.71
6134;BME280;3098;42.678;23.364;2023-05-19T05:25:04;95181.88;;;20.35;69.56
6134;BME280;3098;42.678;23.364;2023-05-19T05:27:31;95189.94;;;19.86;66.70
6134;BME280;3098;42.678;23.364;2023-05-19T05:30:00;95187.41;;;20.72;62.94
6134;BME280;3098;42.678;23.364;2023-05-19T05:32:27;95195.81;;;19.92;66.11
6134;BME280;3098;42.678;23.364;2023-05-19T05:34:55;95195.81;;;20.41;64.25
6134;BME280;3098;42.678;23.364;2023-05-19T05:37:22;95193.44;;;21.55;59.52
6134;BME280;3098;42.678;23.364;2023-05-19T05:39:50;95196.78;;;20.29;61.66
6134;BME280;3098;42.678;23.364;2023-05-19T05:42:17;95204.94;;;20.59;62.02
6134;BME280;3098;42.678;23.364;2023-05-19T05:44:44;95200.72;;;20.88;61.54
6134;BME280;3098;42.678;23.364;2023-05-19T05:47:13;95195.34;;;20.61;62.36
6134;BME280;3098;42.678;23.364;2023-05-19T05:49:41;95175.97;;;20.79;61.30
6134;BME280;3098;42.678;23.364;2023-05-19T05:52:13;95155.47;;;21.34;60.30
6134;BME280;3098;42.678;23.364;2023-05-19T05:54:41;95175.91;;;21.38;61.79
6134;BME280;3098;42.678;23.364;2023-05-19T05:57:09;95206.88;;;20.58;61.08
6134;BME280;3098;42.678;23.364;2023-05-19T05:59:36;95153.78;;;21.99;57.77
6134;BME280;3098;42.678;23.364;2023-05-19T06:02:05;95158.91;;;23.77;50.46
6134;BME280;3098;42.678;23.364;2023-05-19T06:04:34;95171.72;;;22.79;52.05
6134;BME280;3098;42.678;23.364;2023-05-19T06:07:01;95212.38;;;22.43;53.49
6134;BME280;3098;42.678;23.364;2023-05-19T06:09:29;95181.31;;;23.60;49.75
6134;BME280;3098;42.678;23.364;2023-05-19T06:11:57;95221.50;;;23.43;48.13
6134;BME280;3098;42.678;23.364;2023-05-19T06:14:25;95150.50;;;22.88;49.43
6134;BME280;3098;42.678;23.364;2023-05-19T06:16:52;95219.41;;;23.09;48.47
6134;BME280;3098;42.678;23.364;2023-05-19T06:19:19;95217.00;;;23.97;46.75
6134;BME280;3098;42.678;23.364;2023-05-19T06:21:48;95223.59;;;24.74;43.98
6134;BME280;3098;42.678;23.364;2023-05-19T06:24:15;95135.88;;;25.15;42.20
6134;BME280;3098;42.678;23.364;2023-05-19T06:26:43;95093.38;;;25.60;40.11
6134;BME280;3098;42.678;23.364;2023-05-19T06:29:10;95225.09;;;26.00;41.39
6134;BME280;3098;42.678;23.364;2023-05-19T06:31:37;95199.00;;;25.51;40.72
6134;BME280;3098;42.678;23.364;2023-05-19T06:34:04;95196.22;;;25.55;40.63
6134;BME280;3098;42.678;23.364;2023-05-19T06:36:32;95163.81;;;25.89;40.85
6134;BME280;3098;42.678;23.364;2023-05-19T06:39:02;95228.41;;;25.63;40.87
6134;BME280;3098;42.678;23.364;2023-05-19T06:41:29;95225.31;;;26.31;40.34
6134;BME280;3098;42.678;23.364;2023-05-19T06:43:56;95223.63;;;25.85;39.13
6134;BME280;3098;42.678;23.364;2023-05-19T06:46:24;95227.41;;;26.05;39.10
6134;BME280;3098;42.678;23.364;2023-05-19T06:48:51;95222.59;;;25.61;40.75
6134;BME280;3098;42.678;23.364;2023-05-19T06:51:19;95229.81;;;24.88;42.41
6134;BME280;3098;42.678;23.364;2023-05-19T06:53:47;95169.47;;;25.46;40.47
6134;BME280;3098;42.678;23.364;2023-05-19T06:56:16;95228.81;;;26.75;38.38
6134;BME280;3098;42.678;23.364;2023-05-19T06:58:43;95237.34;;;27.18;38.56
6134;BME280;3098;42.678;23.364;2023-05-19T07:01:12;95222.75;;;27.35;36.73
6134;BME280;3098;42.678;23.364;2023-05-19T07:03:39;95212.88;;;27.15;37.43
6134;BME280;3098;42.678;23.364;2023-05-19T07:06:06;95239.69;;;27.84;35.50
6134;BME280;3098;42.678;23.364;2023-05-19T07:08:33;95237.09;;;27.43;36.65
6134;BME280;3098;42.678;23.364;2023-05-19T07:11:01;95201.81;;;26.51;37.82
6134;BME280;3098;42.678;23.364;2023-05-19T07:13:30;95201.06;;;27.59;34.70
6134;BME280;3098;42.678;23.364;2023-05-19T07:15:57;95246.97;;;29.76;32.21
6134;BME280;3098;42.678;23.364;2023-05-19T07:18:25;95174.56;;;28.63;32.99
6134;BME280;3098;42.678;23.364;2023-05-19T07:20:57;95176.72;;;27.75;33.97
6134;BME280;3098;42.678;23.364;2023-05-19T07:23:24;95205.03;;;27.54;35.41
6134;BME280;3098;42.678;23.364;2023-05-19T07:25:53;95214.97;;;26.04;37.42
6134;BME280;3098;42.678;23.364;2023-05-19T07:28:21;95214.41;;;26.75;37.03
6134;BME280;3098;42.678;23.364;2023-05-19T07:30:50;95069.25;;;25.04;38.24
6134;BME280;3098;42.678;23.364;2023-05-19T07:33:17;95234.88;;;26.46;38.26
6134;BME280;3098;42.678;23.364;2023-05-19T07:35:44;95238.84;;;25.72;38.13
6134;BME280;3098;42.678;23.364;2023-05-19T07:38:12;95241.72;;;23.81;41.98
6134;BME280;3098;42.678;23.364;2023-05-19T07:40:40;95244.91;;;24.12;42.23
6134;BME280;3098;42.678;23.364;2023-05-19T07:43:07;95200.72;;;24.96;41.68
6134;BME280;3098;42.678;23.364;2023-05-19T07:45:36;95193.41;;;24.47;40.94
6134;BME280;3098;42.678;23.364;2023-05-19T07:48:05;95237.94;;;24.14;42.31
6134;BME280;3098;42.678;23.364;2023-05-19T07:50:32;95234.44;;;24.67;41.37
6134;BME280;3098;42.678;23.364;2023-05-19T07:53:00;95195.09;;;25.45;38.94
6134;BME280;3098;42.678;23.364;2023-05-19T07:55:27;95235.06;;;26.24;38.79
6134;BME280;3098;42.678;23.364;2023-05-19T07:57:54;95224.09;;;25.69;38.28
6134;BME280;3098;42.678;23.364;2023-05-19T08:00:21;95197.00;;;26.21;38.90
6134;BME280;3098;42.678;23.364;2023-05-19T08:02:49;95217.50;;;27.82;37.07
6134;BME280;3098;42.678;23.364;2023-05-19T08:05:18;95217.50;;;27.18;36.09
6134;BME280;3098;42.678;23.364;2023-05-19T08:07:46;95220.44;;;26.97;36.52
6134;BME280;3098;42.678;23.364;2023-05-19T08:10:13;95230.53;;;26.00;37.89
6134;BME280;3098;42.678;23.364;2023-05-19T08:12:40;95234.19;;;25.73;38.90
6134;BME280;3098;42.678;23.364;2023-05-19T08:15:08;95212.56;;;25.41;40.35
6134;BME280;3098;42.678;23.364;2023-05-19T08:17:36;95123.31;;;24.49;40.89
6134;BME280;3098;42.678;23.364;2023-05-19T08:20:04;95232.50;;;25.93;40.24
6134;BME280;3098;42.678;23.364;2023-05-19T08:22:34;95232.06;;;27.04;39.08
6134;BME280;3098;42.678;23.364;2023-05-19T08:25:02;95214.72;;;26.88;38.29
6134;BME280;3098;42.678;23.364;2023-05-19T08:27:30;95200.13;;;26.64;38.42
6134;BME280;3098;42.678;23.364;2023-05-19T08:29:58;95200.72;;;26.41;37.84
6134;BME280;3098;42.678;23.364;2023-05-19T08:32:26;95222.34;;;26.07;39.16
6134;BME280;3098;42.678;23.364;2023-05-19T08:34:53;95169.25;;;25.89;38.30
6134;BME280;3098;42.678;23.364;2023-05-19T08:37:20;95195.75;;;25.74;38.32
6134;BME280;3098;42.678;23.364;2023-05-19T08:39:49;95209.34;;;26.33;37.92
6134;BME280;3098;42.678;23.364;2023-05-19T08:42:16;95227.06;;;24.00;42.10
6134;BME280;3098;42.678;23.364;2023-05-19T08:44:43;95230.50;;;23.79;43.29
6134;BME280;3098;42.678;23.364;2023-05-19T08:47:11;95207.19;;;25.30;41.16
6134;BME280;3098;42.678;23.364;2023-05-19T08:49:42;95225.72;;;27.11;37.23
6134;BME280;3098;42.678;23.364;2023-05-19T08:52:18;95202.34;;;27.17;36.44
6134;BME280;3098;42.678;23.364;2023-05-19T08:54:52;95207.00;;;27.80;35.72
6134;BME280;3098;42.678;23.364;2023-05-19T08:57:22;95216.50;;;27.69;36.29
6134;BME280;3098;42.678;23.364;2023-05-19T08:59:51;95185.50;;;25.99;39.15
6134;BME280;3098;42.678;23.364;2023-05-19T09:02:21;95218.66;;;26.35;40.10
6134;BME280;3098;42.678;23.364;2023-05-19T09:04:48;95225.16;;;24.64;41.70
6134;BME280;3098;42.678;23.364;2023-05-19T09:07:16;95196.44;;;24.98;41.14
6134;BME280;3098;42.678;23.364;2023-05-19T09:09:44;95185.22;;;24.79;41.12
6134;BME280;3098;42.678;23.364;2023-05-19T09:12:14;95183.72;;;24.21;42.23
6134;BME280;3098;42.678;23.364;2023-05-19T09:14:41;95161.28;;;24.17;42.10
6134;BME280;3098;42.678;23.364;2023-05-19T09:17:08;95205.41;;;24.25;43.51
6134;BME280;3098;42.678;23.364;2023-05-19T09:19:41;95201.13;;;24.70;42.41
6134;BME280;3098;42.678;23.364;2023-05-19T09:22:09;95196.41;;;25.09;42.91
6134;BME280;3098;42.678;23.364;2023-05-19T09:24:38;95117.53;;;24.29;41.68
6134;BME280;3098;42.678;23.364;2023-05-19T09:27:06;95197.72;;;25.70;39.92
6134;BME280;3098;42.678;23.364;2023-05-19T09:29:34;95046.69;;;24.20;40.93
6134;BME280;3098;42.678;23.364;2023-05-19T09:32:01;95152.16;;;25.23;41.41
6134;BME280;3098;42.678;23.364;2023-05-19T09:34:29;95197.50;;;26.05;39.40
6134;BME280;3098;42.678;23.364;2023-05-19T09:36:57;95195.97;;;25.17;40.67
6134;BME280;3098;42.678;23.364;2023-05-19T09:39:24;95158.31;;;26.51;39.10
6134;BME280;3098;42.678;23.364;2023-05-19T09:41:53;95196.53;;;27.15;38.24
6134;BME280;3098;42.678;23.364;2023-05-19T09:44:23;95124.34;;;26.62;36.90
6134;BME280;3098;42.678;23.364;2023-05-19T09:46:56;95165.44;;;26.34;39.63
6134;BME280;3098;42.678;23.364;2023-05-19T09:49:25;95191.41;;;26.87;38.16
6134;BME280;3098;42.678;23.364;2023-05-19T09:51:54;95139.03;;;26.31;38.10
6134;BME280;3098;42.678;23.364;2023-05-19T09:54:22;95119.91;;;26.42;37.77
6134;BME280;3098;42.678;23.364;2023-05-19T09:56:56;95186.09;;;26.69;37.07
6134;BME280;3098;42.678;23.364;2023-05-19T09:59:24;95171.03;;;27.02;35.15
6134;BME280;3098;42.678;23.364;2023-05-19T10:01:55;95154.56;;;26.71;36.17
6134;BME280;3098;42.678;23.364;2023-05-19T10:04:24;95139.22;;;26.54;35.56
6134;BME280;3098;42.678;23.364;2023-05-19T10:06:53;95135.03;;;27.48;35.13
6134;BME280;3098;42.678;23.364;2023-05-19T10:09:21;95160.09;;;24.57;39.08
6134;BME280;3098;42.678;23.364;2023-05-19T10:11:50;95137.28;;;24.19;40.57
6134;BME280;3098;42.678;23.364;2023-05-19T10:14:19;95155.03;;;24.80;40.66
6134;BME280;3098;42.678;23.364;2023-05-19T10:16:49;95144.91;;;26.67;37.12
6134;BME280;3098;42.678;23.364;2023-05-19T10:19:19;95178.94;;;25.90;37.52
6134;BME280;3098;42.678;23.364;2023-05-19T10:21:47;95156.16;;;25.73;37.79
6134;BME280;3098;42.678;23.364;2023-05-19T10:24:15;95146.88;;;25.70;38.49
6134;BME280;3098;42.678;23.364;2023-05-19T10:26:45;95167.47;;;24.46;39.83
6134;BME280;3098;42.678;23.364;2023-05-19T10:29:15;95055.91;;;24.47;38.51
6134;BME280;3098;42.678;23.364;2023-05-19T10:31:45;95119.31;;;26.61;36.68
6134;BME280;3098;42.678;23.364;2023-05-19T10:34:27;95107.34;;;26.92;35.27
6134;BME280;3098;42.678;23.364;2023-05-19T10:37:08;95151.38;;;25.22;38.58
6134;BME280;3098;42.678;23.364;2023-05-19T10:39:41;95154.69;;;25.61;38.80
6134;BME280;3098;42.678;23.364;2023-05-19T10:42:14;95154.69;;;25.61;37.25
6134;BME280;3098;42.678;23.364;2023-05-19T10:44:52;95164.13;;;27.24;33.55
6134;BME280;3098;42.678;23.364;2023-05-19T10:47:24;95117.88;;;27.77;32.42
6134;BME280;3098;42.678;23.364;2023-05-19T10:49:54;95075.22;;;25.98;34.32
6134;BME280;3098;42.678;23.364;2023-05-19T10:52:23;95143.81;;;24.53;37.87
6134;BME280;3098;42.678;23.364;2023-05-19T10:54:51;95103.84;;;24.82;37.81
6134;BME280;3098;42.678;23.364;2023-05-19T10:57:24;95108.88;;;23.14;38.95
6134;BME280;3098;42.678;23.364;2023-05-19T10:59:52;95139.81;;;22.41;41.35
6134;BME280;3098;42.678;23.364;2023-05-19T11:02:39;95114.25;;;21.37;43.90
6134;BME280;3098;42.678;23.364;2023-05-19T11:05:09;95142.59;;;21.60;44.24
6134;BME280;3098;42.678;23.364;2023-05-19T11:07:40;95112.25;;;21.74;45.30
6134;BME280;3098;42.678;23.364;2023-05-19T11:10:09;95005.88;;;21.82;44.00
6134;BME280;3098;42.678;23.364;2023-05-19T11:12:40;95139.47;;;23.32;43.01
6134;BME280;3098;42.678;23.364;2023-05-19T11:15:12;95096.22;;;23.47;41.37
6134;BME280;3098;42.678;23.364;2023-05-19T11:17:41;95144.78;;;23.01;41.38
6134;BME280;3098;42.678;23.364;2023-05-19T11:20:21;95134.03;;;23.25;40.70
6134;BME280;3098;42.678;23.364;2023-05-19T11:23:04;95082.72;;;21.92;41.80
6134;BME280;3098;42.678;23.364;2023-05-19T11:25:43;95114.13;;;22.14;42.84
6134;BME280;3098;42.678;23.364;2023-05-19T11:28:12;95137.06;;;22.38;42.24
6134;BME280;3098;42.678;23.364;2023-05-19T11:30:42;95131.72;;;22.48;41.61
6134;BME280;3098;42.678;23.364;2023-05-19T11:33:11;95093.16;;;21.97;41.13
6134;BME280;3098;42.678;23.364;2023-05-19T11:35:40;95136.59;;;22.21;42.77
6134;BME280;3098;42.678;23.364;2023-05-19T11:38:09;95143.44;;;20.98;53.20
6134;BME280;3098;42.678;23.364;2023-05-19T11:40:37;95072.03;;;19.27;55.36
6134;BME280;3098;42.678;23.364;2023-05-19T11:43:08;95160.94;;;18.58;79.35
6134;BME280;3098;42.678;23.364;2023-05-19T11:45:36;95160.44;;;17.70;89.61
6134;BME280;3098;42.678;23.364;2023-05-19T11:48:04;95136.69;;;16.70;92.66
6134;BME280;3098;42.678;23.364;2023-05-19T11:50:34;95052.31;;;15.84;98.49
6134;BME280;3098;42.678;23.364;2023-05-19T11:53:04;95169.44;;;16.27;100.00
6134;BME280;3098;42.678;23.364;2023-05-19T11:55:31;95112.28;;;15.71;100.00
6134;BME280;3098;42.678;23.364;2023-05-19T11:58:00;95112.38;;;15.63;100.00
6134;BME280;3098;42.678;23.364;2023-05-19T12:00:28;95142.59;;;15.63;100.00
6134;BME280;3098;42.678;23.364;2023-05-19T12:02:57;95213.59;;;16.09;100.00
6134;BME280;3098;42.678;23.364;2023-05-19T12:05:25;95199.84;;;15.62;100.00
6134;BME280;3098;42.678;23.364;2023-05-19T12:07:53;95198.59;;;15.27;100.00
6134;BME280;3098;42.678;23.364;2023-05-19T12:10:23;95218.66;;;15.53;99.66
6134;BME280;3098;42.678;23.364;2023-05-19T12:12:50;95161.88;;;15.36;99.62
6134;BME280;3098;42.678;23.364;2023-05-19T12:15:18;95143.28;;;15.39;99.69
6134;BME280;3098;42.678;23.364;2023-05-19T12:17:48;95188.47;;;15.65;98.57
6134;BME280;3098;42.678;23.364;2023-05-19T12:20:16;95199.53;;;15.64;97.19
6134;BME280;3098;42.678;23.364;2023-05-19T12:22:45;95201.75;;;15.74;97.95
6134;BME280;3098;42.678;23.364;2023-05-19T12:25:14;95192.25;;;15.64;96.93
6134;BME280;3098;42.678;23.364;2023-05-19T12:27:43;95197.09;;;15.95;95.02
6134;BME280;3098;42.678;23.364;2023-05-19T12:30:13;95196.66;;;16.17;95.80
6134;BME280;3098;42.678;23.364;2023-05-19T12:32:41;95159.06;;;16.01;94.98
6134;BME280;3098;42.678;23.364;2023-05-19T12:35:13;95191.31;;;16.17;95.64
6134;BME280;3098;42.678;23.364;2023-05-19T12:37:41;95155.84;;;15.96;94.59
6134;BME280;3098;42.678;23.364;2023-05-19T12:40:13;95200.75;;;16.39;92.17
6134;BME280;3098;42.678;23.364;2023-05-19T12:42:44;95193.06;;;16.37;92.81
6134;BME280;3098;42.678;23.364;2023-05-19T12:45:13;95186.13;;;16.48;92.46
6134;BME280;3098;42.678;23.364;2023-05-19T12:50:13;95147.19;;;16.63;91.98
6134;BME280;3098;42.678;23.364;2023-05-19T12:52:42;95143.81;;;16.66;92.00
6134;BME280;3098;42.678;23.364;2023-05-19T12:55:09;95144.00;;;16.85;90.84
6134;BME280;3098;42.678;23.364;2023-05-19T12:57:37;95150.69;;;17.07;82.94
6134;BME280;3098;42.678;23.364;2023-05-19T13:00:12;95131.53;;;17.20;83.42
6134;BME280;3098;42.678;23.364;2023-05-19T13:02:56;95148.50;;;17.40;79.63
6134;BME280;3098;42.678;23.364;2023-05-19T13:05:25;95149.22;;;17.53;75.99
6134;BME280;3098;42.678;23.364;2023-05-19T13:07:54;95142.06;;;17.57;77.44
6134;BME280;3098;42.678;23.364;2023-05-19T13:10:21;95109.84;;;17.41;74.27
6134;BME280;3098;42.678;23.364;2023-05-19T13:12:48;95145.03;;;17.67;72.65
6134;BME280;3098;42.678;23.364;2023-05-19T13:15:17;95132.22;;;17.61;71.79
6134;BME280;3098;42.678;23.364;2023-05-19T13:17:45;95129.34;;;17.69;72.94
6134;BME280;3098;42.678;23.364;2023-05-19T13:20:12;95142.56;;;17.94;65.00
6134;BME280;3098;42.678;23.364;2023-05-19T13:22:39;95150.53;;;18.21;63.78